createdAt,value
2018-12-13T00:00:23.531Z,101809.84
2018-12-13T00:02:52.387Z,101802.23
2018-12-13T00:05:21.254Z,101806.04
2018-12-13T00:07:50.250Z,101806.57
2018-12-13T00:10:19.107Z,101810.93
2018-12-13T00:12:47.916Z,101804.91
2018-12-13T00:15:19.490Z,101800.86
2018-12-13T00:17:48.266Z,101804.66
2018-12-13T00:20:17.077Z,101805.49
2018-12-13T00:22:45.999Z,101800.59
2018-12-13T00:25:14.974Z,101802.23
2018-12-13T00:27:43.864Z,101809.03
2018-12-13T00:30:12.665Z,101804.91
2018-12-13T00:32:41.624Z,101807.63
2018-12-13T00:35:10.454Z,101805.23
2018-12-13T00:37:39.398Z,101807.41
2018-12-13T00:40:08.325Z,101800.58
2018-12-13T00:42:37.165Z,101802.75
2018-12-13T00:45:06.638Z,101794.89
2018-12-13T00:47:35.460Z,101799.80
2018-12-13T00:50:04.245Z,101810.91
2018-12-13T00:52:33.249Z,101820.70
2018-12-13T00:55:02.089Z,101813.65
2018-12-13T00:57:30.936Z,101820.16
2018-12-13T00:59:59.908Z,101810.39
2018-12-13T01:02:28.739Z,101807.12
2018-12-13T01:04:57.511Z,101811.19
2018-12-13T01:07:26.370Z,101817.98
2018-12-13T01:09:55.133Z,101819.34
2018-12-13T01:12:24.441Z,101814.72
2018-12-13T01:14:53.313Z,101821.22
2018-12-13T01:17:22.149Z,101817.18
2018-12-13T01:19:50.973Z,101814.17
2018-12-13T01:22:20.011Z,101819.61
2018-12-13T01:24:48.897Z,101823.97
2018-12-13T01:27:17.760Z,101817.17
2018-12-13T01:29:46.776Z,101820.43
2018-12-13T01:32:15.594Z,101815.25
2018-12-13T01:34:44.403Z,101807.92
2018-12-13T01:37:13.397Z,101814.19
2018-12-13T01:39:42.253Z,101805.47
2018-12-13T01:42:11.159Z,101804.14
2018-12-13T01:44:40.248Z,101804.66
2018-12-13T01:47:09.283Z,101805.21
2018-12-13T01:49:38.160Z,101803.59
2018-12-13T01:52:07.153Z,101806.86
2018-12-13T01:54:36.127Z,101807.66
2018-12-13T01:57:04.980Z,101810.27
2018-12-13T01:59:33.951Z,101805.77
2018-12-13T02:02:02.769Z,101806.30
2018-12-13T02:04:31.749Z,101797.06
2018-12-13T02:07:00.621Z,101801.69
2018-12-13T02:09:29.435Z,101797.61
2018-12-13T02:11:58.451Z,101793.53
2018-12-13T02:14:27.352Z,101799.25
2018-12-13T02:16:56.286Z,101800.34
2018-12-13T02:19:25.151Z,101807.14
2018-12-13T02:21:53.957Z,101813.39
2018-12-13T02:24:22.745Z,101808.19
2018-12-13T02:26:51.605Z,101807.92
2018-12-13T02:29:20.454Z,101810.13
2018-12-13T02:31:49.432Z,101816.61
2018-12-13T02:34:18.394Z,101813.08
2018-12-13T02:36:47.248Z,101819.63
2018-12-13T02:39:16.177Z,101816.36
2018-12-13T02:41:45.265Z,101810.09
2018-12-13T02:44:14.109Z,101814.46
2018-12-13T02:46:42.926Z,101807.12
2018-12-13T02:49:11.753Z,101808.48
2018-12-13T02:51:40.571Z,101813.63
2018-12-13T02:54:09.444Z,101812.84
2018-12-13T02:56:38.301Z,101810.38
2018-12-13T02:59:07.357Z,101810.67
2018-12-13T03:01:36.238Z,101810.91
2018-12-13T03:04:05.089Z,101810.39
2018-12-13T03:06:34.044Z,101818.25
2018-12-13T03:09:03.065Z,101817.44
2018-12-13T03:11:31.937Z,101814.17
2018-12-13T03:14:00.769Z,101816.91
2018-12-13T03:16:29.723Z,101823.97
2018-12-13T03:18:58.577Z,101819.34
2018-12-13T03:21:27.411Z,101826.95
2018-12-13T03:23:56.461Z,101819.05
2018-12-13T03:26:25.287Z,101820.16
2018-12-13T03:28:54.151Z,101818.25
2018-12-13T03:31:23.008Z,101817.44
2018-12-13T03:33:51.958Z,101817.70
2018-12-13T03:36:20.806Z,101824.52
2018-12-13T03:38:49.920Z,101819.34
2018-12-13T03:41:18.790Z,101822.61
2018-12-13T03:43:47.821Z,101823.97
2018-12-13T03:46:16.628Z,101819.34
2018-12-13T03:48:45.450Z,101824.23
2018-12-13T03:51:14.471Z,101831.30
2018-12-13T03:53:43.226Z,101833.19
2018-12-13T03:56:12.076Z,101820.96
2018-12-13T03:58:40.908Z,101823.13
2018-12-13T04:01:09.997Z,101823.94
2018-12-13T04:03:38.956Z,101821.22
2018-12-13T04:06:07.860Z,101816.92
2018-12-13T04:08:36.812Z,101816.66
2018-12-13T04:11:05.669Z,101818.28
2018-12-13T04:13:34.660Z,101814.20
2018-12-13T04:16:03.479Z,101814.75
2018-12-13T04:18:32.331Z,101813.94
2018-12-13T04:21:01.306Z,101817.18
2018-12-13T04:23:30.129Z,101818.27
2018-12-13T04:25:58.957Z,101819.34
2018-12-13T04:28:28.173Z,101814.13
2018-12-13T04:30:57.140Z,101816.06
2018-12-13T04:33:25.913Z,101826.13
2018-12-13T04:35:54.732Z,101815.81
2018-12-13T04:38:23.692Z,101825.59
2018-12-13T04:40:52.650Z,101824.78
2018-12-13T04:43:21.703Z,101823.69
2018-12-13T04:45:50.573Z,101825.59
2018-12-13T04:48:19.432Z,101823.97
2018-12-13T04:50:48.201Z,101837.30
2018-12-13T04:53:17.108Z,101842.48
2018-12-13T04:55:45.943Z,101843.84
2018-12-13T04:58:14.733Z,101850.30
2018-12-13T05:00:43.581Z,101845.16
2018-12-13T05:03:12.392Z,101841.36
2018-12-13T05:05:41.368Z,101841.88
2018-12-13T05:08:10.752Z,101847.86
2018-12-13T05:10:57.457Z,101846.22
2018-12-13T05:13:26.292Z,101856.81
2018-12-13T05:15:55.164Z,101853.03
2018-12-13T05:18:23.991Z,101855.20
2018-12-13T05:20:52.849Z,101863.91
2018-12-13T05:23:21.841Z,101857.94
2018-12-13T05:25:50.585Z,101856.56
2018-12-13T05:28:19.485Z,101864.17
2018-12-13T05:30:48.314Z,101865.54
2018-12-13T05:33:17.187Z,101865.25
2018-12-13T05:35:45.994Z,101863.89
2018-12-13T05:38:14.817Z,101874.48
2018-12-13T05:40:43.857Z,101862.50
2018-12-13T05:43:12.671Z,101871.24
2018-12-13T05:45:41.500Z,101868.79
2018-12-13T05:48:10.421Z,101875.02
2018-12-13T05:50:39.190Z,101876.66
2018-12-13T05:53:08.011Z,101870.96
2018-12-13T06:04:22.006Z,101872.00
2018-12-13T06:06:50.788Z,101873.38
2018-12-13T06:09:19.638Z,101876.39
2018-12-13T06:11:48.541Z,101879.91
2018-12-13T06:14:17.344Z,101873.14
2018-12-13T06:16:46.294Z,101878.59
2018-12-13T06:19:15.084Z,101879.66
2018-12-13T06:21:44.002Z,101885.96
2018-12-13T06:24:13.046Z,101891.07
2018-12-13T06:26:41.909Z,101896.80
2018-12-13T06:29:10.722Z,101894.08
2018-12-13T06:31:39.596Z,101901.72
2018-12-13T06:34:08.415Z,101893.83
2018-12-13T06:36:37.282Z,101898.70
2018-12-13T06:39:08.074Z,101899.50
2018-12-13T06:41:37.014Z,101901.94
2018-12-13T06:44:05.882Z,101903.28
2018-12-13T06:46:34.709Z,101904.09
2018-12-13T06:49:03.520Z,101909.03
2018-12-13T06:51:32.500Z,101910.66
2018-12-13T06:54:01.350Z,101912.05
2018-12-13T06:56:30.305Z,101912.59
2018-12-13T06:58:59.220Z,101913.10
2018-12-13T07:01:28.119Z,101913.90
2018-12-13T07:03:57.099Z,101914.17
2018-12-13T07:06:25.928Z,101910.94
2018-12-13T07:08:54.789Z,101914.22
2018-12-13T07:11:23.734Z,101913.67
2018-12-13T07:13:52.508Z,101911.20
2018-12-13T07:16:21.465Z,101914.47
2018-12-13T07:18:50.438Z,101916.64
2018-12-13T07:21:19.298Z,101919.86
2018-12-13T07:23:48.145Z,101914.42
2018-12-13T07:26:16.936Z,101921.53
2018-12-13T07:28:45.890Z,101919.66
2018-12-13T07:31:14.701Z,101914.77
2018-12-13T07:33:43.698Z,101915.29
2018-12-13T07:36:12.560Z,101916.38
2018-12-13T07:38:41.527Z,101919.90
2018-12-13T07:41:10.327Z,101921.29
2018-12-13T07:43:39.200Z,101917.20
2018-12-13T07:46:08.158Z,101916.64
2018-12-13T07:48:37.058Z,101918.55
2018-12-13T07:51:06.000Z,101909.28
2018-12-13T07:53:34.785Z,101907.94
2018-12-13T07:56:03.641Z,101908.75
2018-12-13T07:58:32.677Z,101909.85
2018-12-13T08:01:01.462Z,101910.69
2018-12-13T08:03:30.297Z,101917.19
2018-12-13T08:05:59.324Z,101919.06
2018-12-13T08:08:28.167Z,101919.30
2018-12-13T08:10:56.973Z,101913.05
2018-12-13T08:13:25.924Z,101914.17
2018-12-13T08:15:54.749Z,101915.80
2018-12-13T08:18:23.689Z,101913.95
2018-12-13T08:20:52.488Z,101912.05
2018-12-13T08:23:21.349Z,101908.23
2018-12-13T08:25:50.360Z,101906.03
2018-12-13T08:28:19.158Z,101904.66
2018-12-13T08:30:48.017Z,101907.67
2018-12-13T08:33:16.867Z,101904.44
2018-12-13T08:35:45.838Z,101904.11
2018-12-13T08:38:14.859Z,101898.13
2018-12-13T08:40:43.664Z,101897.30
2018-12-13T08:43:12.524Z,101893.21
2018-12-13T08:45:41.536Z,101888.88
2018-12-13T08:48:10.401Z,101880.47
2018-12-13T08:50:39.206Z,101881.30
2018-12-13T08:53:08.005Z,101875.84
2018-12-13T08:55:36.816Z,101873.13
2018-12-13T08:58:05.791Z,101888.08
2018-12-13T09:00:34.768Z,101880.48
2018-12-13T09:03:03.629Z,101882.15
2018-12-13T09:05:32.546Z,101881.56
2018-12-13T09:08:01.496Z,101878.58
2018-12-13T09:10:30.348Z,101870.14
2018-12-13T09:12:59.316Z,101875.03
2018-12-13T09:15:28.272Z,101860.37
2018-12-13T09:17:57.070Z,101862.83
2018-12-13T09:20:25.897Z,101853.86
2018-12-13T09:22:54.769Z,101845.11
2018-12-13T09:25:23.771Z,101841.52
2018-12-13T09:27:52.734Z,101838.19
2018-12-13T09:30:21.692Z,101839.29
2018-12-13T09:32:50.549Z,101834.81
2018-12-13T09:35:19.474Z,101836.48
2018-12-13T09:37:48.312Z,101837.53
2018-12-13T09:40:17.363Z,101833.19
2018-12-13T09:42:46.226Z,101829.66
2018-12-13T09:45:15.010Z,101830.21
2018-12-13T09:47:43.865Z,101829.70
2018-12-13T09:50:12.816Z,101826.14
2018-12-13T09:52:41.610Z,101825.85
2018-12-13T09:55:10.584Z,101812.48
2018-12-13T09:57:39.389Z,101812.70
2018-12-13T10:00:09.828Z,101807.08
2018-12-13T10:02:38.795Z,101801.62
2018-12-13T10:05:07.700Z,101796.20
2018-12-13T10:07:36.661Z,101796.23
2018-12-13T10:10:05.620Z,101792.44
2018-12-13T10:12:34.612Z,101793.27
2018-12-13T10:15:03.486Z,101785.13
2018-12-13T10:17:32.316Z,101787.02
2018-12-13T10:20:01.423Z,101778.48
2018-12-13T10:22:30.480Z,101781.47
2018-12-13T10:24:59.283Z,101777.59
2018-12-13T10:27:28.158Z,101777.05
2018-12-13T10:29:56.993Z,101774.20
2018-12-13T10:32:26.034Z,101769.89
2018-12-13T10:34:54.988Z,101768.52
2018-12-13T10:37:23.972Z,101770.70
2018-12-13T10:39:52.965Z,101764.45
2018-12-13T10:42:21.932Z,101755.76
2018-12-13T10:44:50.785Z,101761.20
2018-12-13T10:47:19.822Z,101755.19
2018-12-13T10:49:48.665Z,101749.91
2018-12-13T10:52:17.528Z,101744.95
2018-12-13T10:54:46.402Z,101748.19
2018-12-13T10:57:15.249Z,101741.77
2018-12-13T10:59:44.287Z,101747.57
2018-12-13T11:02:18.343Z,101746.50
2018-12-13T11:04:47.478Z,101750.05
2018-12-13T11:07:16.289Z,101748.41
2018-12-13T11:09:45.158Z,101752.78
2018-12-13T11:12:14.172Z,101748.97
2018-12-13T11:14:42.985Z,101746.78
2018-12-13T11:17:11.839Z,101745.83
2018-12-13T11:19:40.682Z,101743.05
2018-12-13T11:22:09.680Z,101734.29
2018-12-13T11:24:38.598Z,101727.45
2018-12-13T11:29:28.431Z,101733.88
2018-12-13T11:31:57.380Z,101727.19
2018-12-13T11:34:26.333Z,101723.03
2018-12-13T11:36:55.126Z,101721.17
2018-12-13T11:39:24.170Z,101725.54
2018-12-13T11:41:53.019Z,101722.20
2018-12-13T11:44:21.936Z,101720.19
2018-12-13T11:46:51.073Z,101723.59
2018-12-13T11:49:20.035Z,101724.87
2018-12-13T11:51:48.997Z,101713.72
2018-12-13T11:54:42.270Z,101706.31
2018-12-13T11:57:11.274Z,101703.72
2018-12-13T11:59:40.127Z,101704.53
2018-12-13T12:02:08.962Z,101700.80
2018-12-13T12:04:37.992Z,101701.41
2018-12-13T12:07:07.150Z,101700.91
2018-12-13T12:09:35.997Z,101696.50
2018-12-13T12:12:04.882Z,101697.52
2018-12-13T12:14:33.736Z,101692.23
2018-12-13T12:17:02.577Z,101690.26
2018-12-13T12:19:31.462Z,101695.04
2018-12-13T12:22:00.544Z,101694.28
2018-12-13T12:24:29.384Z,101694.45
2018-12-13T12:26:58.251Z,101695.67
2018-12-13T12:29:27.283Z,101701.95
2018-12-13T12:31:56.175Z,101700.89
2018-12-13T12:34:25.177Z,101694.06
2018-12-13T12:36:54.045Z,101698.38
2018-12-13T12:39:22.934Z,101696.34
2018-12-13T12:41:52.027Z,101696.55
2018-12-13T12:44:20.833Z,101699.80
2018-12-13T12:46:49.842Z,101695.80
2018-12-13T12:49:18.752Z,101701.05
2018-12-13T12:51:47.906Z,101706.44
2018-12-13T12:54:16.781Z,101702.38
2018-12-13T12:56:45.750Z,101706.84
2018-12-13T12:59:14.634Z,101708.77
2018-12-13T13:01:43.652Z,101705.23
2018-12-13T13:04:12.509Z,101710.33
2018-12-13T13:06:41.319Z,101712.37
2018-12-13T13:09:10.173Z,101710.93
2018-12-13T13:11:39.179Z,101708.17
2018-12-13T13:14:08.002Z,101709.20
2018-12-13T13:16:37.092Z,101705.72
2018-12-13T13:19:05.951Z,101707.95
2018-12-13T13:21:34.797Z,101711.72
2018-12-13T13:24:03.649Z,101713.64
2018-12-13T13:26:33.061Z,101712.04
2018-12-13T13:29:01.832Z,101718.57
2018-12-13T13:31:30.830Z,101713.13
2018-12-13T13:33:59.726Z,101711.13
2018-12-13T13:36:28.772Z,101712.44
2018-12-13T13:38:57.617Z,101719.62
2018-12-13T13:41:26.518Z,101717.89
2018-12-13T13:43:55.487Z,101720.66
2018-12-13T13:46:24.362Z,101720.12
2018-12-13T13:48:53.321Z,101721.53
2018-12-13T13:51:22.163Z,101725.06
2018-12-13T13:53:51.129Z,101723.16
2018-12-13T13:56:20.019Z,101727.47
2018-12-13T13:58:48.938Z,101718.50
2018-12-13T14:01:17.945Z,101727.03
2018-12-13T14:03:46.827Z,101724.06
2018-12-13T14:06:15.873Z,101731.08
2018-12-13T14:08:44.881Z,101731.17
2018-12-13T14:11:13.701Z,101725.00
2018-12-13T14:13:42.531Z,101734.56
2018-12-13T14:16:11.502Z,101733.75
2018-12-13T14:18:40.689Z,101740.00
2018-12-13T14:21:09.551Z,101737.29
2018-12-13T14:23:38.344Z,101743.28
2018-12-13T14:26:07.436Z,101741.91
2018-12-13T14:28:36.229Z,101734.82
2018-12-13T14:31:05.067Z,101744.02
2018-12-13T14:33:33.939Z,101738.22
2018-12-13T14:36:02.910Z,101743.05
2018-12-13T14:38:31.895Z,101739.69
2018-12-13T14:41:00.899Z,101748.41
2018-12-13T14:43:30.317Z,101743.53
2018-12-13T14:45:59.073Z,101747.61
2018-12-13T14:48:28.335Z,101750.36
2018-12-13T14:50:57.173Z,101748.71
2018-12-13T14:53:25.997Z,101746.79
2018-12-13T14:55:54.839Z,101744.30
2018-12-13T14:58:23.683Z,101748.32
2018-12-13T15:00:52.502Z,101751.52
2018-12-13T15:03:21.427Z,101754.39
2018-12-13T15:05:50.274Z,101756.29
2018-12-13T15:08:19.223Z,101759.31
2018-12-13T15:10:48.091Z,101765.56
2018-12-13T15:13:17.088Z,101763.39
2018-12-13T15:15:46.104Z,101763.13
2018-12-13T15:18:15.001Z,101767.47
2018-12-13T15:20:43.851Z,101761.45
2018-12-13T15:23:12.660Z,101755.41
2018-12-13T15:25:41.837Z,101757.83
2018-12-13T15:28:10.811Z,101758.91
2018-12-13T15:30:39.784Z,101760.63
2018-12-13T15:33:08.882Z,101769.63
2018-12-13T15:35:37.661Z,101766.66
2018-12-13T15:38:06.533Z,101767.73
2018-12-13T15:40:35.371Z,101764.75
2018-12-13T15:43:04.317Z,101763.13
2018-12-13T15:45:33.201Z,101759.83
2018-12-13T15:48:02.233Z,101757.94
2018-12-13T15:50:31.223Z,101754.32
2018-12-13T15:53:01.499Z,101754.84
2018-12-13T15:55:31.078Z,101749.13
2018-12-13T15:58:00.268Z,101747.30
2018-12-13T16:00:29.490Z,101749.51
2018-12-13T16:02:58.537Z,101757.41
2018-12-13T16:05:27.406Z,101754.44
2018-12-13T16:07:56.429Z,101754.17
2018-12-13T16:10:25.525Z,101754.71
2018-12-13T16:12:54.575Z,101747.91
2018-12-13T16:15:23.508Z,101754.94
2018-12-13T16:17:52.590Z,101750.58
2018-12-13T16:20:21.875Z,101751.61
2018-12-13T16:22:51.009Z,101748.06
2018-12-13T16:25:20.323Z,101747.06
2018-12-13T16:27:49.722Z,101750.88
2018-12-13T16:30:19.512Z,101748.16
2018-12-13T16:32:49.366Z,101749.81
2018-12-13T16:35:18.539Z,101749.00
2018-12-13T16:37:47.731Z,101751.45
2018-12-13T16:40:17.154Z,101741.92
2018-12-13T16:42:46.405Z,101741.92
2018-12-13T16:45:15.358Z,101749.75
2018-12-13T16:47:44.321Z,101748.05
2018-12-13T16:50:13.219Z,101745.56
2018-12-13T16:52:42.085Z,101749.97
2018-12-13T16:55:11.548Z,101762.30
2018-12-13T16:57:41.948Z,101767.47
2018-12-13T17:00:10.940Z,101765.56
2018-12-13T17:02:40.131Z,101761.22
2018-12-13T17:05:09.263Z,101761.50
2018-12-13T17:07:38.678Z,101757.15
2018-12-13T17:10:08.925Z,101761.19
2018-12-13T17:12:38.600Z,101760.06
2018-12-13T17:15:08.587Z,101752.37
2018-12-13T17:17:37.752Z,101756.42
2018-12-13T17:20:07.125Z,101758.67
2018-12-13T17:22:36.374Z,101763.91
2018-12-13T17:25:05.844Z,101761.98
2018-12-13T17:27:34.960Z,101761.22
2018-12-13T17:30:04.045Z,101760.94
2018-12-13T17:32:33.121Z,101762.58
2018-12-13T17:35:02.463Z,101756.59
2018-12-13T17:37:31.541Z,101758.77
2018-12-13T17:40:01.307Z,101758.77
2018-12-13T17:42:30.491Z,101754.90
2018-12-13T17:45:00.234Z,101749.44
2018-12-13T17:47:29.731Z,101749.09
2018-12-13T17:49:59.017Z,101757.41
2018-12-13T17:52:28.136Z,101765.01
2018-12-13T17:54:57.842Z,101767.47
2018-12-13T17:58:33.672Z,101773.45
2018-12-13T18:01:02.810Z,101769.63
2018-12-13T18:03:32.153Z,101769.89
2018-12-13T18:06:01.231Z,101766.36
2018-12-13T18:08:32.518Z,101761.45
2018-12-13T18:11:01.489Z,101752.94
2018-12-13T18:13:30.616Z,101751.50
2018-12-13T18:15:59.798Z,101755.84
2018-12-13T18:18:28.657Z,101755.39
2018-12-13T18:20:57.523Z,101755.43
2018-12-13T18:23:26.421Z,101756.00
2018-12-13T18:25:55.337Z,101760.38
2018-12-13T18:28:24.453Z,101762.02
2018-12-13T18:30:53.304Z,101761.73
2018-12-13T18:33:22.369Z,101765.81
2018-12-13T18:35:51.232Z,101768.52
2018-12-13T18:38:20.485Z,101770.45
2018-12-13T18:40:49.379Z,101764.16
2018-12-13T18:43:18.237Z,101772.83
2018-12-13T18:45:47.027Z,101769.48
2018-12-13T18:48:16.191Z,101773.56
2018-12-13T18:50:45.065Z,101765.48
2018-12-13T18:53:13.895Z,101777.23
2018-12-13T18:55:42.956Z,101774.52
2018-12-13T18:58:12.139Z,101772.09
2018-12-13T19:00:41.454Z,101770.44
2018-12-13T19:03:10.663Z,101774.80
2018-12-13T19:05:39.790Z,101771.27
2018-12-13T19:08:09.073Z,101772.35
2018-12-13T19:10:41.863Z,101777.78
2018-12-13T19:13:09.045Z,101775.02
2018-12-13T19:15:38.610Z,101785.36
2018-12-13T19:18:07.808Z,101779.91
2018-12-13T19:20:36.770Z,101781.58
2018-12-13T19:23:05.635Z,101783.73
2018-12-13T19:25:34.480Z,101787.29
2018-12-13T19:28:03.328Z,101788.39
2018-12-13T19:30:32.253Z,101793.55
2018-12-13T19:33:01.279Z,101791.09
2018-12-13T19:35:30.158Z,101784.58
2018-12-13T19:37:59.588Z,101793.01
2018-12-13T19:40:28.426Z,101784.02
2018-12-13T19:42:57.243Z,101778.88
2018-12-13T19:45:26.222Z,101779.40
2018-12-13T19:47:55.081Z,101772.86
2018-12-13T19:50:23.942Z,101770.70
2018-12-13T19:52:52.807Z,101761.98
2018-12-13T19:55:21.847Z,101770.44
2018-12-13T19:57:50.887Z,101769.08
2018-12-13T20:00:20.060Z,101768.02
2018-12-13T20:02:48.858Z,101768.02
2018-12-13T20:05:17.825Z,101772.34
2018-12-13T20:07:46.598Z,101769.92
2018-12-13T20:10:15.711Z,101772.63
2018-12-13T20:12:44.684Z,101767.73
2018-12-13T20:15:13.528Z,101766.36
2018-12-13T20:17:42.578Z,101767.16
2018-12-13T20:20:11.866Z,101772.30
2018-12-13T20:22:40.837Z,101763.09
2018-12-13T20:25:10.110Z,101761.67
2018-12-13T20:27:40.306Z,101759.58
2018-12-13T20:30:10.149Z,101760.92
2018-12-13T20:32:39.424Z,101765.28
2018-12-13T20:35:08.584Z,101765.02
2018-12-13T20:37:37.555Z,101769.89
2018-12-13T20:40:06.579Z,101770.43
2018-12-13T20:42:35.402Z,101775.00
2018-12-13T20:45:05.147Z,101770.44
2018-12-13T20:47:34.166Z,101771.20
2018-12-13T20:50:02.987Z,101769.63
2018-12-13T20:52:32.319Z,101773.98
2018-12-13T20:55:01.472Z,101779.39
2018-12-13T20:57:30.583Z,101779.42
2018-12-13T20:59:59.534Z,101780.47
2018-12-13T21:02:28.493Z,101779.09
2018-12-13T21:04:57.472Z,101782.64
2018-12-13T21:07:31.552Z,101788.65
2018-12-13T21:10:00.567Z,101788.39
2018-12-13T21:12:29.586Z,101786.20
2018-12-13T21:14:58.441Z,101782.92
2018-12-13T21:17:27.225Z,101776.42
2018-12-13T21:19:56.019Z,101784.27
2018-12-13T21:22:25.036Z,101780.75
2018-12-13T21:24:53.797Z,101776.44
2018-12-13T21:27:22.574Z,101775.87
2018-12-13T21:29:51.830Z,101776.42
2018-12-13T21:32:21.003Z,101784.30
2018-12-13T21:34:50.012Z,101768.78
2018-12-13T21:37:19.100Z,101780.47
2018-12-13T21:39:47.995Z,101781.81
2018-12-13T21:42:16.894Z,101781.29
2018-12-13T21:44:45.708Z,101781.05
2018-12-13T21:47:14.594Z,101780.50
2018-12-13T21:49:43.461Z,101783.77
2018-12-13T21:52:12.446Z,101785.67
2018-12-13T21:54:41.266Z,101784.56
2018-12-13T21:57:10.724Z,101778.59
2018-12-13T21:59:39.693Z,101784.83
2018-12-13T22:02:08.732Z,101784.58
2018-12-13T22:04:37.565Z,101788.12
2018-12-13T22:07:06.569Z,101775.03
2018-12-13T22:09:35.559Z,101771.25
2018-12-13T22:12:04.526Z,101766.05
2018-12-13T22:14:33.397Z,101758.69
2018-12-13T22:17:02.305Z,101760.86
2018-12-13T22:19:31.159Z,101764.39
2018-12-13T22:22:00.221Z,101771.81
2018-12-13T22:24:29.537Z,101768.25
2018-12-13T22:26:58.337Z,101765.27
2018-12-13T22:29:27.533Z,101769.08
2018-12-13T22:31:57.151Z,101765.56
2018-12-13T22:34:26.229Z,101759.86
2018-12-13T22:36:55.432Z,101761.48
2018-12-13T22:39:24.449Z,101764.48
2018-12-13T22:41:53.496Z,101768.27
2018-12-13T22:44:22.468Z,101783.49
2018-12-13T22:46:51.636Z,101788.92
2018-12-13T22:49:20.737Z,101792.70
2018-12-13T22:51:49.530Z,101789.98
2018-12-13T22:54:18.525Z,101785.66
2018-12-13T22:56:47.401Z,101781.02
2018-12-13T22:59:16.177Z,101779.40
2018-12-13T23:01:44.928Z,101779.95
2018-12-13T23:04:13.729Z,101779.40
2018-12-13T23:06:42.657Z,101779.94
2018-12-13T23:09:11.824Z,101785.66
2018-12-13T23:11:40.924Z,101787.84
2018-12-13T23:14:10.023Z,101779.69
2018-12-13T23:16:39.037Z,101781.86
2018-12-13T23:19:07.819Z,101779.39
2018-12-13T23:21:36.582Z,101777.50
2018-12-13T23:24:05.536Z,101780.45
2018-12-13T23:26:34.396Z,101794.31
2018-12-13T23:29:03.180Z,101794.06
2018-12-13T23:31:32.087Z,101793.79
2018-12-13T23:34:00.944Z,101792.73
2018-12-13T23:36:29.956Z,101790.00
2018-12-13T23:38:58.744Z,101781.59
2018-12-13T23:41:27.711Z,101778.33
2018-12-13T23:43:56.455Z,101779.94
2018-12-13T23:46:25.608Z,101796.79
2018-12-13T23:48:54.901Z,101796.23
2018-12-13T23:51:23.676Z,101798.94
2018-12-13T23:53:52.511Z,101800.03
2018-12-13T23:56:21.677Z,101803.84
2018-12-13T23:58:50.966Z,101800.34
